Time;durP1;ratioP1;P1;durP2;ratioP2;P2;SDS_P1;SDS_P2;PMS_P1;PMS_P2;Temp;Humidity;BMP_temperature;BMP_pressure;BME280_temperature;BME280_humidity;BME280_pressure;Samples;Min_cycle;Max_cycle;Signal;HPM_P1;HPM_P2
2022/03/01 00:02:34;;;;;;;6.15;4.10;;;2.60;87.70;;;;;;5128729;27;20043;-83
2022/03/01 00:05:05;;;;;;;8.23;4.70;;;2.60;86.30;;;;;;5119110;27;20183;-83
2022/03/01 00:10:53;;;;;;;8.18;4.80;;;2.80;83.60;;;;;;5030717;28;20044;-83
2022/03/01 00:24:14;;;;;;;8.00;4.78;;;3.60;79.30;;;;;;4959987;28;20495;-82
2022/03/01 00:26:40;;;;;;;9.52;5.30;;;3.60;79.90;;;;;;4886987;28;20575;-84
2022/03/01 00:29:49;;;;;;;8.30;4.35;;;3.60;80.70;;;;;;5013500;28;20128;-83
2022/03/01 00:39:16;;;;;;;10.32;5.05;;;3.60;80.70;;;;;;5015933;28;20052;-83
2022/03/01 00:41:51;;;;;;;8.20;4.05;;;3.70;80.20;;;;;;5019872;28;20325;-83
2022/03/01 00:51:08;;;;;;;6.97;4.13;;;3.70;81.00;;;;;;5015602;28;20413;-84
2022/03/01 01:04:40;;;;;;;6.05;4.10;;;3.80;81.10;;;;;;5005006;28;20448;-83
2022/03/01 01:17:45;;;;;;;6.45;4.45;;;3.70;81.70;;;;;;5024615;28;20072;-83
2022/03/01 01:21:03;;;;;;;6.18;4.32;;;3.60;81.80;;;;;;5017928;28;20028;-83
2022/03/01 01:37:50;;;;;;;6.43;3.75;;;3.70;81.70;;;;;;4966043;28;20025;-82
2022/03/01 01:47:37;;;;;;;8.90;4.70;;;4.10;80.50;;;;;;4972278;28;20167;-83
2022/03/01 01:53:27;;;;;;;;;;;;;;;;;;;;;
2022/03/01 02:03:28;;;;;;;7.60;4.50;;;4.00;81.40;;;;;;4968204;28;20057;-83
2022/03/01 02:06:29;;;;;;;5.88;4.22;;;4.00;80.90;;;;;;5001974;28;20065;-83
2022/03/01 02:09:35;;;;;;;10.52;4.93;;;4.00;81.10;;;;;;5094656;28;20036;-83
2022/03/01 02:12:12;;;;;;;10.85;4.55;;;3.90;82.20;;;;;;5084734;28;20458;-83
2022/03/01 02:14:49;;;;;;;6.63;4.55;;;4.00;81.80;;;;;;5100977;28;20024;-83
2022/03/01 02:17:44;;;;;;;;;;;;;;;;;;;;;
2022/03/01 02:23:32;;;;;;;7.70;5.00;;;3.90;82.20;;;;;;5091094;28;20028;-83
2022/03/01 02:26:04;;;;;;;8.50;4.78;;;3.80;82.50;;;;;;5099245;28;20039;-84
2022/03/01 02:35:14;;;;;;;9.23;4.75;;;3.90;82.60;;;;;;4971164;28;20042;-83
2022/03/01 02:38:04;;;;;;;7.10;4.53;;;3.90;82.50;;;;;;5092343;28;20028;-83
2022/03/01 02:43:44;;;;;;;6.78;4.57;;;3.80;82.30;;;;;;5095385;28;20704;-84
2022/03/01 02:53:19;;;;;;;8.68;4.70;;;3.90;81.90;;;;;;4961227;28;20058;-83
2022/03/01 02:56:49;;;;;;;9.98;5.03;;;4.00;81.70;;;;;;4953172;28;20046;-82
2022/03/01 03:03:11;;;;;;;12.13;4.38;;;4.00;81.00;;;;;;4997233;28;20472;-82
2022/03/01 03:23:18;;;;;;;7.72;5.13;;;3.90;81.10;;;;;;5017358;28;20558;-83
2022/03/01 03:26:49;;;;;;;9.07;4.90;;;3.90;80.80;;;;;;5008114;28;20041;-84
2022/03/01 03:29:37;;;;;;;;;;;;;;;;;;;;;
2022/03/01 03:32:30;;;;;;;8.85;5.05;;;3.80;81.00;;;;;;5018756;28;20030;-83
2022/03/01 03:35:07;;;;;;;7.60;5.22;;;3.80;81.50;;;;;;5122878;27;20076;-83
2022/03/01 03:37:58;;;;;;;6.72;4.82;;;3.80;81.30;;;;;;5094780;27;20031;-83
2022/03/01 03:40:36;;;;;;;11.18;4.35;;;3.70;81.90;;;;;;5111449;27;20031;-83
2022/03/01 03:43:05;;;;;;;6.55;4.70;;;3.80;81.30;;;;;;5121062;27;20016;-83
2022/03/01 03:46:12;;;;;;;6.45;4.18;;;4.00;80.40;;;;;;5119338;27;20125;-83
2022/03/01 03:52:53;;;;;;;7.70;4.35;;;4.00;80.40;;;;;;5036922;28;20045;-83
2022/03/01 03:58:58;;;;;;;6.63;4.13;;;3.80;81.30;;;;;;5005076;28;20620;-83
2022/03/01 04:08:14;;;;;;;;;;;;;;;;;;;;;
2022/03/01 04:11:29;;;;;;;9.00;4.95;;;3.30;82.30;;;;;;5118206;28;20661;-83
2022/03/01 04:13:53;;;;;;;8.93;4.72;;;3.20;83.50;;;;;;5088901;28;20191;-83
2022/03/01 04:16:27;;;;;;;7.43;4.95;;;3.10;84.00;;;;;;5103002;28;20034;-84
2022/03/01 04:19:23;;;;;;;7.57;4.85;;;3.20;84.10;;;;;;5103138;27;20106;-83
2022/03/01 04:28:22;;;;;;;9.13;4.07;;;3.30;83.50;;;;;;5125067;27;20110;-83
2022/03/01 04:31:07;;;;;;;7.70;4.57;;;3.30;83.30;;;;;;5125428;27;20019;-83
2022/03/01 04:37:09;;;;;;;14.82;5.00;;;3.40;83.00;;;;;;5100529;27;20034;-83
2022/03/01 04:39:57;;;;;;;7.15;5.03;;;3.50;82.10;;;;;;5122522;27;20027;-83
2022/03/01 04:42:50;;;;;;;9.77;4.47;;;3.50;82.10;;;;;;5100002;28;20070;-84
2022/03/01 04:45:42;;;;;;;7.65;4.43;;;3.50;82.30;;;;;;5112898;27;20066;-83
2022/03/01 04:49:20;;;;;;;7.43;4.65;;;3.50;82.20;;;;;;5126055;27;20077;-83
2022/03/01 04:52:08;;;;;;;7.75;4.50;;;3.40;82.90;;;;;;5081857;27;20039;-84
2022/03/01 04:55:22;;;;;;;7.70;4.80;;;3.40;83.00;;;;;;5122739;27;20023;-83
2022/03/01 04:58:30;;;;;;;8.02;4.60;;;3.40;82.90;;;;;;5120548;27;20015;-82
2022/03/01 05:00:39;;;;;;;7.88;4.65;;;3.50;82.80;;;;;;5115068;27;20031;-84
2022/03/01 05:03:05;;;;;;;9.30;4.53;;;3.50;82.90;;;;;;5119272;27;20477;-84
2022/03/01 05:06:00;;;;;;;7.35;5.07;;;3.50;82.30;;;;;;5101865;28;20093;-83
2022/03/01 05:08:49;;;;;;;8.13;5.20;;;3.50;82.50;;;;;;5106171;28;20371;-83
2022/03/01 05:11:29;;;;;;;7.13;4.43;;;3.50;82.50;;;;;;5100155;28;20060;-83
2022/03/01 05:13:55;;;;;;;7.63;4.75;;;3.40;82.10;;;;;;5088653;28;20031;-83
2022/03/01 05:16:24;;;;;;;8.10;4.30;;;3.30;83.60;;;;;;5101879;28;20024;-85
2022/03/01 05:18:50;;;;;;;4.78;2.88;;;3.40;82.60;;;;;;5108307;28;20028;-83
2022/03/01 05:21:32;;;;;;;;;;;;;;;;;;;;;
2022/03/01 05:24:01;;;;;;;7.38;4.05;;;3.60;81.80;;;;;;5100213;28;20031;-82
2022/03/01 05:27:01;;;;;;;8.82;4.70;;;3.70;81.80;;;;;;5083752;28;20070;-82
2022/03/01 05:29:26;;;;;;;7.63;4.43;;;3.80;81.10;;;;;;5105233;28;20110;-83
2022/03/01 05:31:52;;;;;;;6.45;4.22;;;3.70;81.80;;;;;;5098859;28;20027;-83
2022/03/01 05:34:28;;;;;;;10.07;4.60;;;3.70;82.30;;;;;;5100919;28;20025;-84
2022/03/01 05:37:04;;;;;;;6.95;4.35;;;3.60;82.40;;;;;;5104253;28;20038;-84
2022/03/01 05:39:31;;;;;;;8.13;4.45;;;3.60;82.10;;;;;;5100558;28;20023;-84
2022/03/01 05:42:03;;;;;;;7.55;4.47;;;3.50;82.20;;;;;;5103623;28;20051;-83
2022/03/01 05:44:34;;;;;;;8.02;4.65;;;3.60;81.80;;;;;;5102538;28;20031;-84
2022/03/01 05:47:00;;;;;;;7.07;3.93;;;3.60;82.00;;;;;;5100260;28;20066;-84
2022/03/01 05:49:29;;;;;;;8.05;3.92;;;3.60;82.20;;;;;;5100328;28;20012;-82
2022/03/01 05:52:14;;;;;;;7.70;4.78;;;3.70;81.60;;;;;;5098793;28;20495;-83
2022/03/01 05:54:46;;;;;;;6.50;4.20;;;3.70;81.70;;;;;;5101405;28;20043;-83
2022/03/01 05:57:28;;;;;;;9.23;4.57;;;3.60;82.60;;;;;;5083293;28;20107;-83
2022/03/01 05:59:58;;;;;;;10.38;5.63;;;3.60;82.40;;;;;;5086339;28;20444;-84
2022/03/01 06:02:27;;;;;;;7.97;4.63;;;3.60;82.20;;;;;;5101208;28;20020;-84
2022/03/01 06:05:02;;;;;;;6.63;4.50;;;3.70;81.80;;;;;;5082951;28;20118;-83
2022/03/01 06:07:34;;;;;;;7.20;3.75;;;3.80;82.10;;;;;;5111922;27;20040;-83
2022/03/01 06:10:00;;;;;;;9.70;4.68;;;3.70;81.60;;;;;;5100334;28;20033;-83
2022/03/01 06:12:26;;;;;;;5.90;3.70;;;3.70;81.80;;;;;;5106534;27;20023;-84
2022/03/01 06:18:09;;;;;;;6.10;4.57;;;4.00;81.20;;;;;;5119305;27;20062;-84
2022/03/01 06:20:44;;;;;;;5.97;3.28;;;4.10;80.80;;;;;;5105820;28;20073;-83
2022/03/01 06:23:11;;;;;;;9.85;4.93;;;4.10;80.20;;;;;;5125710;27;20019;-84
2022/03/01 06:25:37;;;;;;;5.75;3.80;;;4.20;80.50;;;;;;5101475;28;20035;-83
2022/03/01 06:28:30;;;;;;;10.15;4.78;;;4.10;80.10;;;;;;5123149;27;20028;-84
2022/03/01 06:30:56;;;;;;;7.22;4.35;;;4.20;81.20;;;;;;5111890;27;20050;-84
2022/03/01 06:33:45;;;;;;;6.18;4.00;;;4.20;80.80;;;;;;5128979;27;20027;-83
2022/03/01 06:36:14;;;;;;;6.47;4.65;;;4.20;80.20;;;;;;5106608;27;20175;-84
2022/03/01 06:38:40;;;;;;;6.10;4.28;;;4.30;80.40;;;;;;5115958;27;20016;-84
2022/03/01 06:41:06;;;;;;;6.25;4.53;;;4.30;80.10;;;;;;5127710;27;20520;-84
2022/03/01 06:43:41;;;;;;;9.48;4.82;;;4.40;81.30;;;;;;5123511;27;20458;-85
2022/03/01 06:46:25;;;;;;;5.80;4.22;;;4.40;80.40;;;;;;5107013;27;20045;-84
2022/03/01 06:48:54;;;;;;;6.10;4.22;;;4.40;80.20;;;;;;5124225;27;20410;-84
2022/03/01 06:51:20;;;;;;;12.15;5.80;;;4.40;79.70;;;;;;5124052;27;20031;-84
2022/03/01 06:53:46;;;;;;;14.57;7.68;;;4.40;79.60;;;;;;5100135;28;20028;-85
2022/03/01 06:56:12;;;;;;;8.65;4.72;;;4.40;79.50;;;;;;5125426;27;20501;-85
2022/03/01 06:58:38;;;;;;;7.22;4.68;;;4.40;80.20;;;;;;5104456;27;20023;-85
2022/03/01 07:01:04;;;;;;;10.48;4.72;;;4.40;80.10;;;;;;5118688;27;20054;-85
2022/03/01 07:03:53;;;;;;;7.80;4.57;;;4.40;79.80;;;;;;5119496;27;20035;-87
2022/03/01 07:06:19;;;;;;;6.25;4.45;;;4.50;80.50;;;;;;5118794;27;20493;-86
2022/03/01 07:08:45;;;;;;;7.22;4.30;;;4.50;80.10;;;;;;5123195;27;20049;-86
2022/03/01 07:11:10;;;;;;;5.18;4.10;;;4.50;80.50;;;;;;5126248;27;20135;-85
2022/03/01 07:13:37;;;;;;;12.07;4.50;;;4.60;80.10;;;;;;5104507;27;20072;-87
2022/03/01 07:16:05;;;;;;;8.70;4.78;;;4.60;80.20;;;;;;5108009;27;20030;-86
2022/03/01 07:18:34;;;;;;;10.07;4.32;;;4.60;79.80;;;;;;5116221;27;20094;-86
2022/03/01 07:21:02;;;;;;;7.28;4.60;;;4.70;78.60;;;;;;5106620;27;20039;-85
2022/03/01 07:23:34;;;;;;;6.68;4.47;;;4.70;78.90;;;;;;5124559;27;20473;-85
2022/03/01 07:26:01;;;;;;;7.07;4.20;;;4.80;78.30;;;;;;5097582;28;20043;-86
2022/03/01 07:28:31;;;;;;;6.15;4.13;;;4.90;78.30;;;;;;5102197;27;20674;-85
2022/03/01 07:30:57;;;;;;;5.95;4.32;;;5.00;77.20;;;;;;5101898;28;20042;-87
2022/03/01 07:33:26;;;;;;;8.00;4.60;;;5.00;77.20;;;;;;5104344;28;20023;-89
2022/03/01 07:35:52;;;;;;;6.03;4.30;;;5.00;77.90;;;;;;5120017;27;20027;-86
2022/03/01 07:38:18;;;;;;;13.05;4.75;;;5.10;76.80;;;;;;5123101;27;20019;-87
2022/03/01 07:40:45;;;;;;;8.30;4.68;;;5.10;77.50;;;;;;5123670;27;20537;-87
2022/03/01 07:43:11;;;;;;;5.47;4.20;;;5.20;77.90;;;;;;5103241;27;20023;-86
2022/03/01 07:45:36;;;;;;;6.10;4.15;;;5.20;76.20;;;;;;5125924;27;20065;-83
2022/03/01 07:48:06;;;;;;;9.10;4.45;;;5.30;75.90;;;;;;5123552;27;20031;-83
2022/03/01 07:50:35;;;;;;;8.13;4.82;;;5.40;76.10;;;;;;5124647;27;20024;-82
2022/03/01 07:53:01;;;;;;;5.60;4.32;;;5.40;75.80;;;;;;5127157;27;20023;-80
2022/03/01 07:55:29;;;;;;;7.75;4.45;;;5.40;74.90;;;;;;5118184;28;20019;-79
2022/03/01 07:58:07;;;;;;;7.97;4.55;;;5.50;74.80;;;;;;5122316;27;20106;-81
2022/03/01 08:01:08;;;;;;;6.18;4.07;;;5.50;74.70;;;;;;5098577;27;20034;-81
2022/03/01 08:03:34;;;;;;;6.65;3.75;;;5.60;74.50;;;;;;5111604;27;20506;-82
2022/03/01 08:06:02;;;;;;;7.07;4.30;;;5.70;72.70;;;;;;5110687;28;20102;-81
2022/03/01 08:08:33;;;;;;;7.90;5.03;;;5.70;73.10;;;;;;5105437;28;20026;-81
2022/03/01 08:11:14;;;;;;;6.88;4.43;;;5.70;73.50;;;;;;5098447;28;20490;-81
2022/03/01 08:13:42;;;;;;;7.32;5.10;;;5.70;72.10;;;;;;5090980;28;20492;-82
2022/03/01 08:16:08;;;;;;;9.32;4.45;;;5.80;73.50;;;;;;5084625;28;20040;-82
2022/03/01 08:18:55;;;;;;;7.07;4.50;;;5.90;72.00;;;;;;5090936;28;20054;-82
2022/03/01 08:21:21;;;;;;;8.35;5.07;;;5.90;71.60;;;;;;5085799;28;20695;-81
2022/03/01 08:23:49;;;;;;;4.80;4.00;;;6.00;72.30;;;;;;5096611;28;20122;-82
2022/03/01 08:26:15;;;;;;;7.00;4.43;;;6.00;71.70;;;;;;5093131;28;20043;-82
2022/03/01 08:28:41;;;;;;;5.65;4.22;;;6.10;70.70;;;;;;5085671;28;20031;-82
2022/03/01 08:33:59;;;;;;;6.25;4.05;;;6.30;71.00;;;;;;5098845;28;20628;-82
2022/03/01 08:36:30;;;;;;;6.82;3.88;;;6.40;70.20;;;;;;5102465;28;20028;-82
2022/03/01 08:38:56;;;;;;;5.22;3.72;;;6.50;67.70;;;;;;5097720;28;20399;-82
2022/03/01 08:41:23;;;;;;;9.43;4.53;;;6.50;67.50;;;;;;5098865;28;20028;-82
2022/03/01 08:43:49;;;;;;;5.45;3.30;;;6.60;67.70;;;;;;5098931;28;20474;-81
2022/03/01 08:46:18;;;;;;;10.38;4.20;;;6.70;67.00;;;;;;5101335;28;20058;-81
2022/03/01 08:48:44;;;;;;;6.05;4.35;;;6.70;66.50;;;;;;5078449;28;20020;-82
2022/03/01 08:51:17;;;;;;;5.72;3.88;;;6.70;67.10;;;;;;5103239;28;20027;-82
2022/03/01 08:53:45;;;;;;;7.05;4.30;;;6.70;66.10;;;;;;5096530;28;20016;-82
2022/03/01 08:56:14;;;;;;;6.18;4.35;;;6.80;66.10;;;;;;5084831;28;20035;-82
2022/03/01 08:58:43;;;;;;;5.93;4.07;;;6.80;66.50;;;;;;5099975;28;20028;-82
2022/03/01 09:01:15;;;;;;;5.75;3.47;;;6.90;66.60;;;;;;5100351;28;20046;-82
2022/03/01 09:03:41;;;;;;;6.85;3.47;;;6.90;64.90;;;;;;5108300;28;20107;-82
2022/03/01 09:06:10;;;;;;;5.20;3.65;;;7.00;65.00;;;;;;5101655;28;20048;-82
2022/03/01 09:08:40;;;;;;;6.22;3.88;;;7.10;64.50;;;;;;5086043;28;20031;-82
2022/03/01 09:11:08;;;;;;;5.28;3.70;;;7.10;64.40;;;;;;5101074;28;20024;-81
2022/03/01 09:13:34;;;;;;;11.23;3.75;;;7.20;63.60;;;;;;5104675;28;20136;-81
2022/03/01 09:16:29;;;;;;;6.85;3.28;;;7.20;62.70;;;;;;5082193;28;20043;-82
2022/03/01 09:18:55;;;;;;;4.63;3.30;;;7.30;61.60;;;;;;5065135;28;20066;-81
2022/03/01 09:21:21;;;;;;;4.95;3.42;;;7.30;61.70;;;;;;5077453;28;20032;-81
2022/03/01 09:23:46;;;;;;;5.13;3.30;;;7.40;61.60;;;;;;5091820;28;20028;-82
2022/03/01 09:26:24;;;;;;;6.80;3.90;;;7.50;63.60;;;;;;5077012;28;20032;-89
2022/03/01 09:28:50;;;;;;;5.32;3.67;;;7.60;63.20;;;;;;5083044;28;20063;-84
2022/03/01 09:31:19;;;;;;;15.32;3.75;;;7.60;63.40;;;;;;5096007;28;20051;-81
2022/03/01 09:33:45;;;;;;;6.15;3.03;;;7.70;63.90;;;;;;5091129;28;20110;-83
2022/03/01 09:36:14;;;;;;;6.30;3.30;;;7.70;60.40;;;;;;5092494;28;20104;-83
2022/03/01 09:38:57;;;;;;;5.68;3.25;;;7.70;60.90;;;;;;5090702;28;20027;-85
2022/03/01 09:41:23;;;;;;;5.90;3.25;;;7.70;61.30;;;;;;5092148;28;20043;-83
2022/03/01 09:43:54;;;;;;;4.82;3.22;;;7.70;60.60;;;;;;5089132;28;20423;-81
2022/03/01 09:46:19;;;;;;;8.73;3.20;;;7.70;60.30;;;;;;5094069;28;20399;-82
2022/03/01 09:48:46;;;;;;;5.57;3.42;;;7.80;59.70;;;;;;5088880;28;20016;-82
2022/03/01 09:51:13;;;;;;;3.92;2.70;;;7.90;59.40;;;;;;5093795;28;20035;-80
2022/03/01 09:53:47;;;;;;;4.68;3.03;;;7.80;59.00;;;;;;5093785;28;20069;-82
2022/03/01 09:56:27;;;;;;;5.90;3.08;;;7.90;58.20;;;;;;5074393;28;20035;-83
2022/03/01 09:58:53;;;;;;;6.07;3.22;;;8.00;60.40;;;;;;5089854;28;20023;-81
2022/03/01 10:01:19;;;;;;;4.90;3.22;;;8.00;59.00;;;;;;5076231;28;20039;-77
2022/03/01 10:03:54;;;;;;;3.63;2.80;;;8.10;59.60;;;;;;5088136;28;20422;-84
2022/03/01 10:06:22;;;;;;;4.65;2.83;;;8.10;59.40;;;;;;5088851;28;20456;-86
2022/03/01 10:09:06;;;;;;;4.47;3.00;;;8.20;59.30;;;;;;5089504;28;20025;-81
2022/03/01 10:11:37;;;;;;;4.20;2.92;;;8.30;58.70;;;;;;5095528;28;20433;-82
2022/03/01 10:14:03;;;;;;;7.80;2.83;;;8.40;57.90;;;;;;5095066;28;20081;-83
2022/03/01 10:16:46;;;;;;;3.80;2.88;;;8.40;58.10;;;;;;5092076;28;20024;-81
2022/03/01 10:19:20;;;;;;;5.07;3.00;;;8.40;57.90;;;;;;5093840;28;20031;-86
2022/03/01 10:22:03;;;;;;;4.38;2.70;;;8.40;57.80;;;;;;5077120;28;20085;-84
2022/03/01 10:24:30;;;;;;;4.57;2.60;;;8.50;57.70;;;;;;5072024;28;20027;-82
2022/03/01 10:27:05;;;;;;;7.75;3.42;;;8.60;57.60;;;;;;5088729;28;20028;-81
2022/03/01 10:29:31;;;;;;;4.80;3.08;;;8.70;57.00;;;;;;5090411;28;20054;-82
2022/03/01 10:32:12;;;;;;;6.35;3.47;;;8.70;57.50;;;;;;5091920;28;20056;-84
2022/03/01 10:35:01;;;;;;;4.32;2.90;;;8.80;58.10;;;;;;5076487;28;20055;-82
2022/03/01 10:37:33;;;;;;;3.88;2.97;;;8.80;56.90;;;;;;5090915;28;20103;-82
2022/03/01 10:40:34;;;;;;;6.13;2.95;;;8.70;57.50;;;;;;5094020;28;20084;-82
2022/03/01 10:43:09;;;;;;;4.50;2.78;;;8.80;57.70;;;;;;5091015;28;20024;-82
2022/03/01 10:45:40;;;;;;;5.38;2.60;;;9.00;57.40;;;;;;5096425;28;20027;-80
2022/03/01 10:48:11;;;;;;;5.75;3.35;;;9.00;56.30;;;;;;5094069;28;20020;-82
2022/03/01 10:50:40;;;;;;;4.05;3.20;;;9.00;57.10;;;;;;5075940;28;20126;-83
2022/03/01 10:53:07;;;;;;;4.72;3.22;;;9.10;57.00;;;;;;5074276;28;20034;-82
2022/03/01 10:55:35;;;;;;;4.82;2.72;;;9.20;57.50;;;;;;5079598;28;20142;-82
2022/03/01 10:58:10;;;;;;;7.35;3.03;;;9.30;56.10;;;;;;5083663;28;20027;-82
2022/03/01 11:00:37;;;;;;;5.68;3.10;;;9.30;56.10;;;;;;5098687;28;20036;-82
2022/03/01 11:03:08;;;;;;;5.45;2.88;;;9.30;55.30;;;;;;5084605;28;20067;-82
2022/03/01 11:05:35;;;;;;;4.03;3.17;;;9.30;56.50;;;;;;5080084;28;20635;-82
2022/03/01 11:08:08;;;;;;;5.55;3.20;;;9.40;56.80;;;;;;5102329;28;20054;-81
2022/03/01 11:10:44;;;;;;;3.20;2.67;;;9.60;56.40;;;;;;5098857;28;20052;-82
2022/03/01 11:13:10;;;;;;;4.13;3.05;;;9.90;55.80;;;;;;5102503;28;20129;-81
2022/03/01 11:15:41;;;;;;;4.82;3.28;;;9.70;55.10;;;;;;5097213;28;20028;-83
2022/03/01 11:18:39;;;;;;;6.20;3.20;;;9.70;56.80;;;;;;5082100;28;20019;-82
2022/03/01 11:21:10;;;;;;;4.43;2.90;;;9.80;54.80;;;;;;5092716;28;20406;-82
2022/03/01 11:23:39;;;;;;;6.93;3.28;;;9.70;56.20;;;;;;5095969;28;20024;-82
2022/03/01 11:26:13;;;;;;;4.70;2.78;;;9.60;54.70;;;;;;5096978;28;20119;-83
2022/03/01 11:28:42;;;;;;;4.55;3.00;;;9.80;56.10;;;;;;5091413;28;20035;-82
2022/03/01 11:31:26;;;;;;;4.38;3.08;;;9.90;55.70;;;;;;5070988;28;20138;-83
2022/03/01 11:34:09;;;;;;;4.13;3.33;;;10.10;55.00;;;;;;5099430;28;20028;-82
2022/03/01 11:36:35;;;;;;;3.47;2.80;;;10.00;55.10;;;;;;5098092;28;20027;-82
2022/03/01 11:39:35;;;;;;;6.30;3.08;;;10.10;55.50;;;;;;5080253;28;20028;-81
2022/03/01 11:42:14;;;;;;;6.07;3.20;;;10.20;55.00;;;;;;5097310;28;20374;-83
2022/03/01 11:44:41;;;;;;;2.65;2.45;;;10.20;55.60;;;;;;5081881;28;20024;-82
2022/03/01 11:47:21;;;;;;;4.88;2.92;;;10.20;54.60;;;;;;5100131;28;20049;-81
2022/03/01 11:49:50;;;;;;;4.13;2.92;;;10.30;55.20;;;;;;5100741;28;20039;-82
2022/03/01 11:52:21;;;;;;;4.05;2.97;;;10.30;55.10;;;;;;5099153;28;20111;-82
2022/03/01 11:54:49;;;;;;;7.38;3.13;;;10.40;55.10;;;;;;5099379;28;20031;-82
2022/03/01 11:57:17;;;;;;;3.75;2.58;;;10.40;54.10;;;;;;5099342;28;20028;-82
2022/03/01 11:59:44;;;;;;;6.13;2.90;;;10.50;54.00;;;;;;5081029;28;20024;-82
2022/03/01 12:02:11;;;;;;;4.95;3.20;;;10.60;53.60;;;;;;5081494;28;20031;-82
2022/03/01 12:04:46;;;;;;;5.18;3.15;;;10.70;54.70;;;;;;5102620;28;20015;-82
2022/03/01 12:07:19;;;;;;;4.88;3.33;;;10.80;54.20;;;;;;5118177;27;20050;-82
2022/03/01 12:09:58;;;;;;;5.22;2.85;;;10.80;53.70;;;;;;5101862;28;20104;-82
2022/03/01 12:12:35;;;;;;;3.42;2.45;;;10.70;54.90;;;;;;5101193;27;20493;-82
2022/03/01 12:15:02;;;;;;;5.63;2.70;;;10.70;53.80;;;;;;5101405;28;20019;-81
2022/03/01 12:17:38;;;;;;;5.40;2.75;;;10.70;53.60;;;;;;5110608;27;20023;-82
2022/03/01 12:20:10;;;;;;;4.72;2.90;;;10.90;54.60;;;;;;5105005;28;20439;-82
2022/03/01 12:22:36;;;;;;;6.13;2.85;;;11.00;53.60;;;;;;5121485;27;20024;-82
2022/03/01 12:25:02;;;;;;;5.63;2.75;;;11.00;54.40;;;;;;5122836;28;20499;-82
2022/03/01 12:27:31;;;;;;;10.77;3.38;;;11.20;53.00;;;;;;5104464;28;20024;-83
2022/03/01 12:30:03;;;;;;;3.78;3.20;;;12.90;51.30;;;;;;5122784;28;20031;-83
2022/03/01 12:32:28;;;;;;;6.80;2.95;;;16.70;48.30;;;;;;5110984;28;20024;-83
2022/03/01 12:35:01;;;;;;;5.97;2.78;;;19.80;43.10;;;;;;5119956;27;20076;-82
2022/03/01 12:37:28;;;;;;;6.60;3.25;;;21.30;40.60;;;;;;5113750;27;20060;-83
2022/03/01 12:39:55;;;;;;;3.80;2.90;;;21.60;40.90;;;;;;5127068;27;20035;-82
2022/03/01 12:42:27;;;;;;;3.13;2.75;;;22.70;38.40;;;;;;5108646;27;20019;-83
2022/03/01 12:44:54;;;;;;;3.85;2.83;;;23.80;37.30;;;;;;5111585;27;20027;-83
2022/03/01 12:47:20;;;;;;;3.97;3.10;;;25.20;34.80;;;;;;5123680;27;20533;-83
2022/03/01 12:49:45;;;;;;;3.20;2.50;;;25.30;34.80;;;;;;5126831;27;20015;-82
2022/03/01 12:52:20;;;;;;;3.75;3.00;;;24.70;34.00;;;;;;5126226;27;20020;-83
2022/03/01 12:54:48;;;;;;;6.75;3.03;;;23.50;34.30;;;;;;5105586;27;20016;-84
2022/03/01 12:57:15;;;;;;;2.95;2.67;;;23.70;34.30;;;;;;5124369;27;20030;-83
2022/03/01 12:59:41;;;;;;;5.10;3.25;;;23.50;34.00;;;;;;5126524;27;20015;-83
2022/03/01 13:02:07;;;;;;;6.15;2.78;;;23.60;34.90;;;;;;5106762;27;20016;-83
2022/03/01 13:04:38;;;;;;;6.65;2.85;;;24.30;33.80;;;;;;5104367;27;20026;-82
2022/03/01 13:07:04;;;;;;;4.38;2.47;;;25.10;33.80;;;;;;5124705;27;20048;-83
2022/03/01 13:09:30;;;;;;;3.58;2.63;;;25.00;32.90;;;;;;5127579;27;20031;-82
2022/03/01 13:11:57;;;;;;;5.53;3.10;;;24.80;33.00;;;;;;5123763;27;20020;-83
2022/03/01 13:14:25;;;;;;;4.32;2.40;;;24.80;33.50;;;;;;5119455;27;20024;-83
2022/03/01 13:16:54;;;;;;;5.10;2.92;;;23.90;34.90;;;;;;5106152;27;20569;-83
2022/03/01 13:19:28;;;;;;;5.47;3.05;;;22.90;37.20;;;;;;5108350;27;20027;-82
2022/03/01 13:22:10;;;;;;;3.05;2.40;;;20.60;39.40;;;;;;5123522;27;20513;-83
2022/03/01 13:24:46;;;;;;;4.97;3.03;;;18.90;41.50;;;;;;5121850;27;20068;-83
2022/03/01 13:27:21;;;;;;;4.35;3.17;;;18.70;41.70;;;;;;5122963;27;20102;-82
2022/03/01 13:29:49;;;;;;;3.25;2.47;;;18.20;43.20;;;;;;5105321;27;20477;-82
2022/03/01 13:32:27;;;;;;;4.07;2.90;;;18.40;42.40;;;;;;5103841;27;20493;-82
2022/03/01 13:35:03;;;;;;;3.80;3.20;;;17.20;50.70;;;;;;5120219;27;20024;-82
2022/03/01 13:37:28;;;;;;;4.22;2.97;;;16.60;51.80;;;;;;5112677;27;20106;-83
2022/03/01 13:39:56;;;;;;;3.40;2.70;;;16.00;51.80;;;;;;5125587;27;20106;-82
2022/03/01 13:42:28;;;;;;;5.38;3.00;;;16.20;52.00;;;;;;5125558;27;20020;-83
2022/03/01 13:44:54;;;;;;;7.10;3.25;;;16.60;50.40;;;;;;5125673;27;20032;-83
2022/03/01 13:47:21;;;;;;;5.45;2.80;;;16.60;46.30;;;;;;5106567;27;20034;-83
2022/03/01 13:50:09;;;;;;;6.50;2.70;;;16.50;44.70;;;;;;5125632;27;20114;-82
2022/03/01 13:52:37;;;;;;;3.78;2.90;;;17.20;47.80;;;;;;5112315;27;20382;-83
2022/03/01 13:55:05;;;;;;;5.80;3.10;;;16.30;50.70;;;;;;5129181;27;20027;-82
2022/03/01 13:57:36;;;;;;;9.35;3.28;;;16.50;48.40;;;;;;5117894;27;20543;-82
2022/03/01 14:00:11;;;;;;;3.45;2.63;;;16.50;48.50;;;;;;5103328;27;20493;-83
2022/03/01 14:02:42;;;;;;;4.38;2.72;;;17.00;47.50;;;;;;5121722;27;20012;-83
2022/03/01 14:05:10;;;;;;;4.00;3.10;;;17.50;43.20;;;;;;5128116;27;20035;-83
2022/03/01 14:07:36;;;;;;;4.43;3.00;;;17.70;43.80;;;;;;5104396;28;20099;-83
2022/03/01 14:10:04;;;;;;;6.95;3.30;;;18.00;43.70;;;;;;5101303;28;20034;-82
2022/03/01 14:12:31;;;;;;;4.85;3.13;;;18.10;46.10;;;;;;5096544;28;20118;-83
2022/03/01 14:14:56;;;;;;;5.15;2.88;;;18.60;45.80;;;;;;5101417;28;20537;-82
2022/03/01 14:17:22;;;;;;;5.32;2.90;;;18.10;44.40;;;;;;5101342;28;20091;-82
2022/03/01 14:19:58;;;;;;;3.70;2.90;;;17.70;46.00;;;;;;5081380;28;20478;-82
2022/03/01 14:22:25;;;;;;;5.28;3.17;;;17.50;45.10;;;;;;5104535;28;20028;-83
2022/03/01 14:24:52;;;;;;;8.13;3.65;;;17.90;44.30;;;;;;5099803;28;20386;-83
2022/03/01 14:27:19;;;;;;;4.68;3.22;;;17.70;43.60;;;;;;5100957;28;20054;-84
2022/03/01 14:29:45;;;;;;;3.95;2.92;;;17.20;45.60;;;;;;5100012;28;20020;-83
2022/03/01 14:32:11;;;;;;;4.65;3.42;;;16.70;47.60;;;;;;5102887;28;20015;-81
2022/03/01 14:34:37;;;;;;;5.05;3.10;;;16.30;46.60;;;;;;5100370;28;20055;-82
2022/03/01 14:37:03;;;;;;;3.58;2.70;;;16.60;47.40;;;;;;5084033;28;20063;-82
2022/03/01 14:39:29;;;;;;;11.43;3.42;;;16.20;47.80;;;;;;5100405;28;20027;-83
2022/03/01 14:41:55;;;;;;;5.68;2.90;;;16.70;47.40;;;;;;5097093;28;20028;-82
2022/03/01 14:44:21;;;;;;;6.03;3.50;;;16.40;47.00;;;;;;5099530;28;20287;-82
2022/03/01 14:46:47;;;;;;;6.70;3.30;;;16.40;46.70;;;;;;5101925;28;20031;-82
2022/03/01 14:49:13;;;;;;;6.97;3.28;;;15.70;47.20;;;;;;5105816;28;20027;-83
2022/03/01 14:51:41;;;;;;;5.32;3.70;;;16.30;47.80;;;;;;5099400;28;20076;-83
2022/03/01 14:54:09;;;;;;;4.78;3.47;;;16.70;45.20;;;;;;5103825;28;20023;-82
2022/03/01 14:56:35;;;;;;;17.15;6.70;;;17.10;42.90;;;;;;5101405;28;20509;-83
2022/03/01 14:59:01;;;;;;;5.82;3.63;;;17.10;43.90;;;;;;5098849;28;20081;-80
2022/03/01 15:01:29;;;;;;;7.35;3.75;;;17.00;45.10;;;;;;5100495;28;20490;-83
2022/03/01 15:03:55;;;;;;;5.82;3.20;;;16.80;44.70;;;;;;5080402;28;20441;-81
2022/03/01 15:06:21;;;;;;;4.00;3.53;;;16.70;44.50;;;;;;5107650;27;20047;-82
2022/03/01 15:08:47;;;;;;;12.60;3.75;;;16.50;44.40;;;;;;5102775;28;20027;-82
2022/03/01 15:11:13;;;;;;;8.15;3.25;;;17.20;44.40;;;;;;5124851;27;20027;-83
2022/03/01 15:13:39;;;;;;;6.68;3.17;;;19.00;42.30;;;;;;5117770;27;20015;-83
2022/03/01 15:16:05;;;;;;;5.68;3.83;;;20.10;40.10;;;;;;5119203;27;20547;-82
2022/03/01 15:18:31;;;;;;;5.45;3.70;;;20.80;39.20;;;;;;5113152;27;20031;-83
2022/03/01 15:20:59;;;;;;;4.18;3.40;;;19.40;40.90;;;;;;5118936;27;20019;-83
2022/03/01 15:23:26;;;;;;;3.78;3.28;;;17.30;43.40;;;;;;5123022;27;20031;-82
2022/03/01 15:25:51;;;;;;;5.88;3.83;;;15.70;45.80;;;;;;5100798;28;20036;-82
2022/03/01 15:28:18;;;;;;;3.58;3.28;;;15.60;47.70;;;;;;5104158;28;20047;-82
2022/03/01 15:30:44;;;;;;;4.55;3.45;;;15.90;48.10;;;;;;5100413;28;20031;-83
2022/03/01 15:33:10;;;;;;;5.07;3.78;;;15.30;49.10;;;;;;5104534;28;20016;-82
2022/03/01 15:35:36;;;;;;;7.85;4.13;;;14.40;50.70;;;;;;5118759;27;20303;-81
2022/03/01 15:38:04;;;;;;;5.65;4.38;;;13.50;51.80;;;;;;5099039;28;20477;-82
2022/03/01 15:40:34;;;;;;;6.75;4.22;;;12.70;52.90;;;;;;5118707;27;20098;-82
2022/03/01 15:43:03;;;;;;;5.60;4.25;;;12.80;53.10;;;;;;5122625;27;20015;-82
2022/03/01 15:45:33;;;;;;;5.15;4.18;;;12.50;54.10;;;;;;5100598;27;20428;-80
2022/03/01 15:48:01;;;;;;;6.20;4.28;;;12.40;55.10;;;;;;5104600;27;20076;-81
2022/03/01 15:50:27;;;;;;;6.82;4.75;;;12.80;55.40;;;;;;5118650;27;20019;-82
2022/03/01 15:52:52;;;;;;;6.68;4.88;;;13.20;54.50;;;;;;5123119;27;20019;-82
2022/03/01 15:55:19;;;;;;;6.82;4.28;;;13.20;54.80;;;;;;5119362;27;20019;-82
2022/03/01 15:57:45;;;;;;;6.68;4.53;;;12.90;54.50;;;;;;5110124;27;20027;-85
2022/03/01 16:00:14;;;;;;;12.25;6.28;;;13.30;53.70;;;;;;5109893;27;20055;-85
2022/03/01 16:02:40;;;;;;;5.47;4.22;;;13.90;53.20;;;;;;5136665;27;20103;-85